sensor_id;sensor_type;location;lat;lon;timestamp;pressure;altitude;pressure_sealevel;temperature;humidity
18784;BME280;9520;50.954;6.968;2023-03-20T00:00:27;101332.69;;;17.43;47.83
18784;BME280;9520;50.954;6.968;2023-03-20T00:00:51;101364.13;;;17.61;47.80
18784;BME280;9520;50.954;6.968;2023-03-20T00:01:14;101364.13;;;17.61;48.10
18784;BME280;9520;50.954;6.968;2023-03-20T00:01:38;101351.88;;;17.54;48.09
18784;BME280;9520;50.954;6.968;2023-03-20T00:02:00;101366.84;;;17.58;47.97
18784;BME280;9520;50.954;6.968;2023-03-20T00:02:24;101365.97;;;17.59;47.91
18784;BME280;9520;50.954;6.968;2023-03-20T00:02:46;101367.75;;;17.57;47.95
18784;BME280;9520;50.954;6.968;2023-03-20T00:03:09;101365.97;;;17.57;47.84
18784;BME280;9520;50.954;6.968;2023-03-20T00:03:32;101366.03;;;17.56;48.11
18784;BME280;9520;50.954;6.968;2023-03-20T00:03:54;101368.75;;;17.54;47.90
18784;BME280;9520;50.954;6.968;2023-03-20T00:04:15;101359.03;;;17.52;47.90
18784;BME280;9520;50.954;6.968;2023-03-20T00:04:38;101364.28;;;17.55;48.22
18784;BME280;9520;50.954;6.968;2023-03-20T00:05:01;101368.88;;;17.51;48.01
18784;BME280;9520;50.954;6.968;2023-03-20T00:05:24;101371.31;;;17.57;47.73
18784;BME280;9520;50.954;6.968;2023-03-20T00:05:46;101377.53;;;17.58;47.61
18784;BME280;9520;50.954;6.968;2023-03-20T00:06:13;101372.22;;;17.56;47.73
18784;BME280;9520;50.954;6.968;2023-03-20T00:06:37;101374.13;;;17.53;47.73
18784;BME280;9520;50.954;6.968;2023-03-20T00:06:59;101354.72;;;17.48;47.91
18784;BME280;9520;50.954;6.968;2023-03-20T00:07:22;101368.88;;;17.51;47.81
18784;BME280;9520;50.954;6.968;2023-03-20T00:07:44;101347.00;;;17.40;47.92
18784;BME280;9520;50.954;6.968;2023-03-20T00:08:09;101370.66;;;17.51;48.07
18784;BME280;9520;50.954;6.968;2023-03-20T00:08:31;101367.13;;;17.50;47.58
18784;BME280;9520;50.954;6.968;2023-03-20T00:08:54;101367.13;;;17.50;47.55
18784;BME280;9520;50.954;6.968;2023-03-20T00:09:18;101362.69;;;17.49;47.90
18784;BME280;9520;50.954;6.968;2023-03-20T00:09:39;101372.38;;;17.52;47.83
18784;BME280;9520;50.954;6.968;2023-03-20T00:10:01;101363.53;;;17.51;47.77
18784;BME280;9520;50.954;6.968;2023-03-20T00:10:26;101372.44;;;17.50;47.79
18784;BME280;9520;50.954;6.968;2023-03-20T00:10:52;101368.88;;;17.51;47.65
18784;BME280;9520;50.954;6.968;2023-03-20T00:11:26;101357.50;;;17.45;47.70
18784;BME280;9520;50.954;6.968;2023-03-20T00:12:13;101374.97;;;17.55;47.54
18784;BME280;9520;50.954;6.968;2023-03-20T00:19:37;101366.41;;;17.45;47.61
18784;BME280;9520;50.954;6.968;2023-03-20T00:20:13;101367.28;;;17.46;47.53
18784;BME280;9520;50.954;6.968;2023-03-20T00:20:39;101349.84;;;17.34;47.66
18784;BME280;9520;50.954;6.968;2023-03-20T00:21:18;101370.75;;;17.48;47.33
18784;BME280;9520;50.954;6.968;2023-03-20T00:34:15;101391.03;;;17.25;48.21
18784;BME280;9520;50.954;6.968;2023-03-20T00:37:58;101380.19;;;17.32;48.22
18784;BME280;9520;50.954;6.968;2023-03-20T00:39:20;101393.38;;;17.36;48.47
18784;BME280;9520;50.954;6.968;2023-03-20T00:40:03;101321.75;;;16.96;48.16
18784;BME280;9520;50.954;6.968;2023-03-20T00:42:58;101399.41;;;17.41;48.04
18784;BME280;9520;50.954;6.968;2023-03-20T00:48:20;101401.38;;;17.36;47.90
18784;BME280;9520;50.954;6.968;2023-03-20T00:49:45;101403.09;;;17.37;47.70
18784;BME280;9520;50.954;6.968;2023-03-20T00:50:50;101400.66;;;17.30;47.83
18784;BME280;9520;50.954;6.968;2023-03-20T00:51:18;101384.06;;;17.21;48.08
18784;BME280;9520;50.954;6.968;2023-03-20T00:51:58;101399.66;;;17.34;48.26
18784;BME280;9520;50.954;6.968;2023-03-20T00:53:51;101391.75;;;17.31;47.90
18784;BME280;9520;50.954;6.968;2023-03-20T00:54:27;101393.44;;;17.33;48.09
18784;BME280;9520;50.954;6.968;2023-03-20T00:54:50;101405.72;;;17.39;48.03
18784;BME280;9520;50.954;6.968;2023-03-20T00:55:13;101394.16;;;17.38;48.02
18784;BME280;9520;50.954;6.968;2023-03-20T00:55:36;101401.25;;;17.39;48.01
18784;BME280;9520;50.954;6.968;2023-03-20T00:56:01;101401.16;;;17.42;48.05
18784;BME280;9520;50.954;6.968;2023-03-20T00:56:30;101398.47;;;17.42;47.91
18784;BME280;9520;50.954;6.968;2023-03-20T00:56:55;101392.25;;;17.42;47.84
18784;BME280;9520;50.954;6.968;2023-03-20T00:57:23;101409.97;;;17.44;48.01
18784;BME280;9520;50.954;6.968;2023-03-20T00:57:52;101401.09;;;17.44;48.28
18784;BME280;9520;50.954;6.968;2023-03-20T00:58:17;101402.84;;;17.45;48.10
18784;BME280;9520;50.954;6.968;2023-03-20T00:58:40;101396.69;;;17.43;48.29
18784;BME280;9520;50.954;6.968;2023-03-20T00:59:04;101398.53;;;17.41;47.99
18784;BME280;9520;50.954;6.968;2023-03-20T00:59:30;101405.59;;;17.42;48.19
18784;BME280;9520;50.954;6.968;2023-03-20T00:59:57;101406.44;;;17.44;48.20
18784;BME280;9520;50.954;6.968;2023-03-20T01:00:30;101404.59;;;17.46;47.96
18784;BME280;9520;50.954;6.968;2023-03-20T01:00:55;101405.41;;;17.48;47.93
18784;BME280;9520;50.954;6.968;2023-03-20T01:01:20;101399.19;;;17.47;47.92
18784;BME280;9520;50.954;6.968;2023-03-20T01:01:45;101408.97;;;17.48;47.83
18784;BME280;9520;50.954;6.968;2023-03-20T01:02:13;101409.84;;;17.49;48.20
18784;BME280;9520;50.954;6.968;2023-03-20T01:02:41;101402.91;;;17.43;48.08
18784;BME280;9520;50.954;6.968;2023-03-20T01:03:10;101407.13;;;17.50;48.00
18784;BME280;9520;50.954;6.968;2023-03-20T01:03:34;101399.19;;;17.47;47.92
18784;BME280;9520;50.954;6.968;2023-03-20T01:04:08;101409.00;;;17.47;47.68
18784;BME280;9520;50.954;6.968;2023-03-20T01:04:36;101394.91;;;17.43;47.93
18784;BME280;9520;50.954;6.968;2023-03-20T01:05:01;101408.91;;;17.50;48.09
18784;BME280;9520;50.954;6.968;2023-03-20T01:05:28;101409.84;;;17.49;48.45
18784;BME280;9520;50.954;6.968;2023-03-20T01:05:50;101404.50;;;17.49;48.56
18784;BME280;9520;50.954;6.968;2023-03-20T01:06:13;101406.25;;;17.50;48.20
18784;BME280;9520;50.954;6.968;2023-03-20T01:06:37;101407.16;;;17.49;48.28
18784;BME280;9520;50.954;6.968;2023-03-20T01:06:59;101407.94;;;17.52;47.97
18784;BME280;9520;50.954;6.968;2023-03-20T01:07:22;101405.34;;;17.51;47.83
18784;BME280;9520;50.954;6.968;2023-03-20T01:07:45;101377.41;;;17.35;47.86
18784;BME280;9520;50.954;6.968;2023-03-20T01:08:14;101408.97;;;17.48;47.81
18784;BME280;9520;50.954;6.968;2023-03-20T01:08:38;101398.53;;;17.41;47.37
18784;BME280;9520;50.954;6.968;2023-03-20T01:09:01;101376.81;;;17.25;47.10
18784;BME280;9520;50.954;6.968;2023-03-20T01:09:26;101403.97;;;17.38;47.12
18784;BME280;9520;50.954;6.968;2023-03-20T01:09:48;101405.72;;;17.39;47.67
18784;BME280;9520;50.954;6.968;2023-03-20T01:10:13;101394.28;;;17.35;47.31
18784;BME280;9520;50.954;6.968;2023-03-20T01:10:36;101405.72;;;17.39;47.53
18784;BME280;9520;50.954;6.968;2023-03-20T01:10:58;101354.97;;;17.12;47.42
18784;BME280;9520;50.954;6.968;2023-03-20T01:11:21;101399.47;;;17.40;47.49
18784;BME280;9520;50.954;6.968;2023-03-20T01:11:45;101400.38;;;17.39;47.48
18784;BME280;9520;50.954;6.968;2023-03-20T01:12:09;101403.97;;;17.38;47.68
18784;BME280;9520;50.954;6.968;2023-03-20T01:12:34;101400.53;;;17.34;47.45
18784;BME280;9520;50.954;6.968;2023-03-20T01:12:57;101324.75;;;16.86;47.65
18784;BME280;9520;50.954;6.968;2023-03-20T01:14:14;101397.91;;;17.33;47.40
18784;BME280;9520;50.954;6.968;2023-03-20T01:14:38;101396.88;;;17.37;47.46
18784;BME280;9520;50.954;6.968;2023-03-20T01:15:00;101400.38;;;17.39;47.07
18784;BME280;9520;50.954;6.968;2023-03-20T01:15:24;101385.53;;;17.30;47.15
18784;BME280;9520;50.954;6.968;2023-03-20T01:15:49;101395.03;;;17.39;47.17
18784;BME280;9520;50.954;6.968;2023-03-20T01:16:19;101399.53;;;17.37;47.10
18784;BME280;9520;50.954;6.968;2023-03-20T01:16:43;101395.16;;;17.36;47.33
18784;BME280;9520;50.954;6.968;2023-03-20T01:17:08;101378.72;;;17.21;47.26
18784;BME280;9520;50.954;6.968;2023-03-20T01:17:37;101404.94;;;17.35;47.26
18784;BME280;9520;50.954;6.968;2023-03-20T01:17:59;101395.19;;;17.34;47.44
18784;BME280;9520;50.954;6.968;2023-03-20T01:18:23;101383.91;;;17.26;47.24
18784;BME280;9520;50.954;6.968;2023-03-20T01:18:45;101402.34;;;17.32;47.42
18784;BME280;9520;50.954;6.968;2023-03-20T01:19:10;101403.19;;;17.34;47.38
18784;BME280;9520;50.954;6.968;2023-03-20T01:19:33;101390.22;;;17.22;47.13
18784;BME280;9520;50.954;6.968;2023-03-20T01:19:56;101395.56;;;17.22;47.04
18784;BME280;9520;50.954;6.968;2023-03-20T01:20:21;101399.91;;;17.26;47.24
18784;BME280;9520;50.954;6.968;2023-03-20T01:20:43;101400.78;;;17.26;47.51
18784;BME280;9520;50.954;6.968;2023-03-20T01:21:07;101394.56;;;17.26;47.27
18784;BME280;9520;50.954;6.968;2023-03-20T01:21:31;101394.56;;;17.26;47.21
18784;BME280;9520;50.954;6.968;2023-03-20T01:21:53;101393.72;;;17.24;47.31
18784;BME280;9520;50.954;6.968;2023-03-20T01:22:16;101391.09;;;17.22;47.36
18784;BME280;9520;50.954;6.968;2023-03-20T01:22:38;101397.25;;;17.26;46.98
18784;BME280;9520;50.954;6.968;2023-03-20T01:23:00;101398.13;;;17.26;47.21
18784;BME280;9520;50.954;6.968;2023-03-20T01:23:23;101394.50;;;17.27;47.01
18784;BME280;9520;50.954;6.968;2023-03-20T01:23:48;101397.13;;;17.29;47.28
18784;BME280;9520;50.954;6.968;2023-03-20T01:24:12;101347.41;;;16.99;47.07
18784;BME280;9520;50.954;6.968;2023-03-20T01:24:36;101392.66;;;17.30;46.57
18784;BME280;9520;50.954;6.968;2023-03-20T01:25:03;101394.47;;;17.29;46.78
18784;BME280;9520;50.954;6.968;2023-03-20T01:25:27;101406.03;;;17.28;46.89
18784;BME280;9520;50.954;6.968;2023-03-20T01:25:52;101393.59;;;17.28;46.91
18784;BME280;9520;50.954;6.968;2023-03-20T01:26:21;101396.19;;;17.32;46.92
18784;BME280;9520;50.954;6.968;2023-03-20T01:26:45;101395.22;;;17.33;47.20
18784;BME280;9520;50.954;6.968;2023-03-20T01:27:12;101390.78;;;17.33;47.26
18784;BME280;9520;50.954;6.968;2023-03-20T01:27:34;101383.03;;;17.25;47.40
18784;BME280;9520;50.954;6.968;2023-03-20T01:27:57;101368.97;;;17.20;47.11
18784;BME280;9520;50.954;6.968;2023-03-20T01:28:21;101345.41;;;17.07;47.60
18784;BME280;9520;50.954;6.968;2023-03-20T01:28:44;101396.06;;;17.35;47.50
18784;BME280;9520;50.954;6.968;2023-03-20T01:29:15;101391.59;;;17.35;47.41
18784;BME280;9520;50.954;6.968;2023-03-20T01:29:38;101371.56;;;17.22;47.43
18784;BME280;9520;50.954;6.968;2023-03-20T01:30:00;101382.00;;;17.30;47.47
18784;BME280;9520;50.954;6.968;2023-03-20T01:30:25;101395.16;;;17.36;47.03
18784;BME280;9520;50.954;6.968;2023-03-20T01:30:47;101379.38;;;17.28;47.31
18784;BME280;9520;50.954;6.968;2023-03-20T01:31:10;101385.41;;;17.35;47.20
18784;BME280;9520;50.954;6.968;2023-03-20T01:31:33;101382.69;;;17.36;47.21
18784;BME280;9520;50.954;6.968;2023-03-20T01:31:56;101387.97;;;17.38;47.05
18784;BME280;9520;50.954;6.968;2023-03-20T01:32:20;101395.03;;;17.39;47.33
18784;BME280;9520;50.954;6.968;2023-03-20T01:32:44;101393.28;;;17.38;47.08
18784;BME280;9520;50.954;6.968;2023-03-20T01:33:13;101392.38;;;17.39;47.03
18784;BME280;9520;50.954;6.968;2023-03-20T01:33:37;101406.56;;;17.41;47.38
18784;BME280;9520;50.954;6.968;2023-03-20T01:33:58;101396.84;;;17.38;47.38
18784;BME280;9520;50.954;6.968;2023-03-20T01:45:19;101382.91;;;17.28;46.60
18784;BME280;9520;50.954;6.968;2023-03-20T01:45:49;101388.34;;;17.25;46.88
18784;BME280;9520;50.954;6.968;2023-03-20T01:46:18;101381.28;;;17.24;46.79
18784;BME280;9520;50.954;6.968;2023-03-20T01:46:43;101367.22;;;17.19;46.41
18784;BME280;9520;50.954;6.968;2023-03-20T01:47:16;101390.00;;;17.30;46.68
18784;BME280;9520;50.954;6.968;2023-03-20T01:47:39;101391.78;;;17.29;46.67
18784;BME280;9520;50.954;6.968;2023-03-20T01:48:11;101384.66;;;17.30;46.77
18784;BME280;9520;50.954;6.968;2023-03-20T01:48:57;101383.78;;;17.29;46.73
18784;BME280;9520;50.954;6.968;2023-03-20T01:50:25;101375.84;;;17.27;46.72
18784;BME280;9520;50.954;6.968;2023-03-20T01:50:54;101372.66;;;17.16;46.64
18784;BME280;9520;50.954;6.968;2023-03-20T01:51:21;101389.31;;;17.23;46.43
18784;BME280;9520;50.954;6.968;2023-03-20T01:51:50;101387.63;;;17.20;46.65
18784;BME280;9520;50.954;6.968;2023-03-20T01:52:15;101377.19;;;17.13;46.42
18784;BME280;9520;50.954;6.968;2023-03-20T01:52:38;101373.50;;;17.17;46.16
18784;BME280;9520;50.954;6.968;2023-03-20T01:53:09;101384.22;;;17.15;46.15
18784;BME280;9520;50.954;6.968;2023-03-20T01:53:38;101381.63;;;17.12;46.31
18784;BME280;9520;50.954;6.968;2023-03-20T01:54:06;101379.09;;;17.09;46.25
18784;BME280;9520;50.954;6.968;2023-03-20T01:55:37;101383.69;;;17.04;46.29
18784;BME280;9520;50.954;6.968;2023-03-20T01:57:04;101372.25;;;17.01;45.77
18784;BME280;9520;50.954;6.968;2023-03-20T02:05:38;101384.53;;;17.06;47.21
18784;BME280;9520;50.954;6.968;2023-03-20T02:06:01;101372.97;;;17.06;46.87
18784;BME280;9520;50.954;6.968;2023-03-20T02:06:44;101380.00;;;17.08;47.03
18784;BME280;9520;50.954;6.968;2023-03-20T02:07:16;101385.28;;;17.10;46.73
18784;BME280;9520;50.954;6.968;2023-03-20T02:07:56;101373.13;;;17.01;46.42
18784;BME280;9520;50.954;6.968;2023-03-20T02:08:26;101389.72;;;17.11;46.84
18784;BME280;9520;50.954;6.968;2023-03-20T02:08:54;101391.50;;;17.10;46.76
18784;BME280;9520;50.954;6.968;2023-03-20T02:09:17;101386.97;;;17.12;46.67
18784;BME280;9520;50.954;6.968;2023-03-20T02:09:40;101386.97;;;17.12;46.68
18784;BME280;9520;50.954;6.968;2023-03-20T02:10:10;101298.75;;;16.64;46.48
18784;BME280;9520;50.954;6.968;2023-03-20T02:11:01;101380.78;;;17.12;46.43
18784;BME280;9520;50.954;6.968;2023-03-20T02:11:25;101386.94;;;17.14;46.46
18784;BME280;9520;50.954;6.968;2023-03-20T02:11:48;101370.38;;;17.03;46.08
18784;BME280;9520;50.954;6.968;2023-03-20T02:12:14;101382.47;;;17.14;46.51
18784;BME280;9520;50.954;6.968;2023-03-20T02:12:37;101385.16;;;17.14;46.84
18784;BME280;9520;50.954;6.968;2023-03-20T02:13:02;101382.63;;;17.10;47.24
18784;BME280;9520;50.954;6.968;2023-03-20T02:13:32;101388.59;;;17.18;46.26
18784;BME280;9520;50.954;6.968;2023-03-20T02:13:58;101385.16;;;17.14;45.97
18784;BME280;9520;50.954;6.968;2023-03-20T02:14:27;101388.59;;;17.18;45.67
18784;BME280;9520;50.954;6.968;2023-03-20T02:14:59;101378.75;;;17.20;46.03
18784;BME280;9520;50.954;6.968;2023-03-20T02:15:54;101378.00;;;17.16;46.38
18784;BME280;9520;50.954;6.968;2023-03-20T02:17:43;101381.50;;;17.17;46.65
18784;BME280;9520;50.954;6.968;2023-03-20T02:20:05;101393.09;;;17.16;46.09
18784;BME280;9520;50.954;6.968;2023-03-20T02:26:36;101395.03;;;17.11;45.76
18784;BME280;9520;50.954;6.968;2023-03-20T02:27:08;101381.06;;;17.03;45.71
18784;BME280;9520;50.954;6.968;2023-03-20T02:27:39;101384.41;;;17.09;45.94
18784;BME280;9520;50.954;6.968;2023-03-20T02:29:43;101333.91;;;16.77;45.92
18784;BME280;9520;50.954;6.968;2023-03-20T02:31:33;101405.50;;;17.17;44.97
18784;BME280;9520;50.954;6.968;2023-03-20T02:32:19;101395.03;;;17.11;45.23
18784;BME280;9520;50.954;6.968;2023-03-20T02:33:57;101403.78;;;17.16;46.69
18784;BME280;9520;50.954;6.968;2023-03-20T02:36:58;101398.34;;;17.19;45.35
18784;BME280;9520;50.954;6.968;2023-03-20T02:37:46;101394.75;;;17.20;45.84
18784;BME280;9520;50.954;6.968;2023-03-20T02:39:21;101386.75;;;17.20;46.32
18784;BME280;9520;50.954;6.968;2023-03-20T02:39:55;101384.13;;;17.18;45.63
18784;BME280;9520;50.954;6.968;2023-03-20T02:40:26;101382.34;;;17.19;45.65
18784;BME280;9520;50.954;6.968;2023-03-20T02:40:58;101374.38;;;17.17;45.92
18784;BME280;9520;50.954;6.968;2023-03-20T02:41:27;101379.66;;;17.19;46.25
18784;BME280;9520;50.954;6.968;2023-03-20T02:42:01;101362.06;;;17.13;46.39
18784;BME280;9520;50.954;6.968;2023-03-20T02:42:36;101380.50;;;17.21;45.60
18784;BME280;9520;50.954;6.968;2023-03-20T02:43:06;101376.06;;;17.21;45.38
18784;BME280;9520;50.954;6.968;2023-03-20T02:43:41;101374.34;;;17.19;45.51
18784;BME280;9520;50.954;6.968;2023-03-20T02:44:10;101369.03;;;17.17;45.74
18784;BME280;9520;50.954;6.968;2023-03-20T02:44:44;101383.19;;;17.21;45.66
18784;BME280;9520;50.954;6.968;2023-03-20T02:45:14;101342.09;;;16.99;45.73
18784;BME280;9520;50.954;6.968;2023-03-20T02:45:42;101369.91;;;17.18;46.00
18784;BME280;9520;50.954;6.968;2023-03-20T02:46:20;101374.22;;;17.22;45.89
18784;BME280;9520;50.954;6.968;2023-03-20T02:46:54;101387.44;;;17.26;45.60
18784;BME280;9520;50.954;6.968;2023-03-20T02:58:03;101362.66;;;16.95;44.93
18784;BME280;9520;50.954;6.968;2023-03-20T02:58:35;101358.13;;;16.97;44.98
18784;BME280;9520;50.954;6.968;2023-03-20T02:59:04;101361.63;;;16.99;44.83
18784;BME280;9520;50.954;6.968;2023-03-20T02:59:34;101362.59;;;16.97;45.18
18784;BME280;9520;50.954;6.968;2023-03-20T03:00:03;101357.31;;;16.95;45.34
18784;BME280;9520;50.954;6.968;2023-03-20T03:00:35;101373.19;;;16.98;45.06
18784;BME280;9520;50.954;6.968;2023-03-20T03:01:07;101369.66;;;16.98;45.29
18784;BME280;9520;50.954;6.968;2023-03-20T03:01:34;101368.75;;;16.99;45.16
18784;BME280;9520;50.954;6.968;2023-03-20T03:02:03;101370.59;;;16.97;45.74
18784;BME280;9520;50.954;6.968;2023-03-20T03:02:31;101367.06;;;16.96;45.69
18784;BME280;9520;50.954;6.968;2023-03-20T03:03:03;101373.34;;;16.94;46.07
18784;BME280;9520;50.954;6.968;2023-03-20T03:03:32;101378.75;;;16.92;46.21
18784;BME280;9520;50.954;6.968;2023-03-20T03:03:59;101380.47;;;16.93;46.21
18784;BME280;9520;50.954;6.968;2023-03-20T03:04:25;101381.41;;;16.92;46.54
18784;BME280;9520;50.954;6.968;2023-03-20T03:04:56;101384.97;;;16.91;46.57
18784;BME280;9520;50.954;6.968;2023-03-20T03:05:22;101383.19;;;16.92;46.18
18784;BME280;9520;50.954;6.968;2023-03-20T03:05:49;101348.19;;;16.73;46.49
18784;BME280;9520;50.954;6.968;2023-03-20T03:06:16;101381.44;;;16.91;46.44
18784;BME280;9520;50.954;6.968;2023-03-20T03:06:41;101389.44;;;16.91;46.23
18784;BME280;9520;50.954;6.968;2023-03-20T03:07:07;101393.00;;;16.90;46.32
18784;BME280;9520;50.954;6.968;2023-03-20T03:07:35;101384.25;;;16.86;46.75
18784;BME280;9520;50.954;6.968;2023-03-20T03:08:03;101380.66;;;16.87;46.79
18784;BME280;9520;50.954;6.968;2023-03-20T03:08:32;101391.22;;;16.90;47.02
18784;BME280;9520;50.954;6.968;2023-03-20T03:09:00;101386.72;;;16.92;46.78
18784;BME280;9520;50.954;6.968;2023-03-20T03:09:28;101372.78;;;16.82;46.60
18784;BME280;9520;50.954;6.968;2023-03-20T03:09:54;101385.78;;;16.93;46.73
18784;BME280;9520;50.954;6.968;2023-03-20T03:10:21;101397.25;;;16.97;46.58
18784;BME280;9520;50.954;6.968;2023-03-20T03:10:49;101399.94;;;16.95;46.16
18784;BME280;9520;50.954;6.968;2023-03-20T03:11:13;101370.03;;;16.86;45.94
18784;BME280;9520;50.954;6.968;2023-03-20T03:11:39;101390.97;;;16.98;45.79
18784;BME280;9520;50.954;6.968;2023-03-20T03:12:06;101388.53;;;16.92;46.21
18784;BME280;9520;50.954;6.968;2023-03-20T03:12:34;101393.63;;;16.98;45.95
18784;BME280;9520;50.954;6.968;2023-03-20T03:13:00;101389.16;;;17.00;45.98
18784;BME280;9520;50.954;6.968;2023-03-20T03:13:26;101391.84;;;16.98;46.36
18784;BME280;9520;50.954;6.968;2023-03-20T03:13:53;101380.56;;;16.90;46.28
18784;BME280;9520;50.954;6.968;2023-03-20T03:14:35;101385.06;;;16.88;46.77
18784;BME280;9520;50.954;6.968;2023-03-20T03:15:06;101396.38;;;16.96;46.89
18784;BME280;9520;50.954;6.968;2023-03-20T03:15:43;101383.44;;;16.82;46.63
18784;BME280;9520;50.954;6.968;2023-03-20T03:16:09;101396.38;;;16.96;46.86
18784;BME280;9520;50.954;6.968;2023-03-20T03:16:35;101381.63;;;16.84;46.52
18784;BME280;9520;50.954;6.968;2023-03-20T03:16:59;101401.72;;;16.96;46.47
18784;BME280;9520;50.954;6.968;2023-03-20T03:17:26;101409.59;;;16.99;46.26
18784;BME280;9520;50.954;6.968;2023-03-20T03:17:51;101396.31;;;16.98;46.45
18784;BME280;9520;50.954;6.968;2023-03-20T03:18:18;101408.75;;;16.97;46.11
18784;BME280;9520;50.954;6.968;2023-03-20T03:18:40;101403.38;;;16.99;46.35
18784;BME280;9520;50.954;6.968;2023-03-20T03:19:06;101406.81;;;17.02;45.94
18784;BME280;9520;50.954;6.968;2023-03-20T03:19:32;101404.28;;;16.99;46.44
18784;BME280;9520;50.954;6.968;2023-03-20T03:19:58;101406.97;;;16.98;46.51
18784;BME280;9520;50.954;6.968;2023-03-20T03:20:28;101392.09;;;16.91;46.68
18784;BME280;9520;50.954;6.968;2023-03-20T03:20:55;101402.63;;;16.95;46.82
18784;BME280;9520;50.954;6.968;2023-03-20T03:21:20;101407.03;;;16.96;46.40
18784;BME280;9520;50.954;6.968;2023-03-20T03:21:45;101389.47;;;16.89;46.42
18784;BME280;9520;50.954;6.968;2023-03-20T03:22:10;101392.16;;;16.88;46.15
18784;BME280;9520;50.954;6.968;2023-03-20T03:22:34;101393.78;;;16.93;45.87
18784;BME280;9520;50.954;6.968;2023-03-20T03:22:57;101402.63;;;16.95;45.92
18784;BME280;9520;50.954;6.968;2023-03-20T03:23:26;101398.16;;;16.96;46.33
18784;BME280;9520;50.954;6.968;2023-03-20T03:23:51;101392.75;;;16.97;46.43
18784;BME280;9520;50.954;6.968;2023-03-20T03:24:22;101391.94;;;16.97;46.29
18784;BME280;9520;50.954;6.968;2023-03-20T03:25:03;101398.16;;;16.96;46.67
18784;BME280;9520;50.954;6.968;2023-03-20T03:25:27;101399.94;;;16.95;46.65
18784;BME280;9520;50.954;6.968;2023-03-20T03:25:52;101397.25;;;16.97;47.00
18784;BME280;9520;50.954;6.968;2023-03-20T03:26:19;101399.84;;;16.98;46.61
18784;BME280;9520;50.954;6.968;2023-03-20T03:26:42;101395.44;;;16.97;46.54
18784;BME280;9520;50.954;6.968;2023-03-20T03:27:11;101401.63;;;16.98;46.77
18784;BME280;9520;50.954;6.968;2023-03-20T03:27:36;101394.59;;;16.97;46.84
18784;BME280;9520;50.954;6.968;2023-03-20T03:28:04;101404.22;;;17.01;46.46
18784;BME280;9520;50.954;6.968;2023-03-20T03:28:32;101398.03;;;17.00;46.51
18784;BME280;9520;50.954;6.968;2023-03-20T03:33:27;101402.63;;;16.95;46.18
18784;BME280;9520;50.954;6.968;2023-03-20T03:37:33;101388.59;;;16.89;45.93
18784;BME280;9520;50.954;6.968;2023-03-20T03:49:38;101369.28;;;16.82;46.60
18784;BME280;9520;50.954;6.968;2023-03-20T03:50:08;101369.34;;;16.79;46.54
18784;BME280;9520;50.954;6.968;2023-03-20T03:50:36;101368.53;;;16.77;46.94
18784;BME280;9520;50.954;6.968;2023-03-20T03:51:03;101371.19;;;16.77;46.87
18784;BME280;9520;50.954;6.968;2023-03-20T03:51:37;101365.75;;;16.80;46.89
18784;BME280;9520;50.954;6.968;2023-03-20T03:52:08;101365.75;;;16.80;46.72
18784;BME280;9520;50.954;6.968;2023-03-20T03:52:33;101373.75;;;16.80;46.63
18784;BME280;9520;50.954;6.968;2023-03-20T03:52:59;101363.19;;;16.77;46.77
18784;BME280;9520;50.954;6.968;2023-03-20T03:53:29;101370.25;;;16.78;47.27
18784;BME280;9520;50.954;6.968;2023-03-20T03:53:55;101367.53;;;16.81;47.29
18784;BME280;9520;50.954;6.968;2023-03-20T03:54:22;101364.84;;;16.81;47.14
18784;BME280;9520;50.954;6.968;2023-03-20T03:55:09;101369.34;;;16.79;46.88
18784;BME280;9520;50.954;6.968;2023-03-20T03:55:50;101381.75;;;16.80;46.89
18784;BME280;9520;50.954;6.968;2023-03-20T03:56:19;101373.78;;;16.78;46.89
18784;BME280;9520;50.954;6.968;2023-03-20T03:56:46;101359.97;;;16.66;46.54
18784;BME280;9520;50.954;6.968;2023-03-20T03:57:11;101373.91;;;16.75;46.85
18784;BME280;9520;50.954;6.968;2023-03-20T03:57:40;101374.78;;;16.76;46.82
18784;BME280;9520;50.954;6.968;2023-03-20T03:58:09;101374.84;;;16.73;46.85
18784;BME280;9520;50.954;6.968;2023-03-20T03:58:36;101377.50;;;16.73;46.70
18784;BME280;9520;50.954;6.968;2023-03-20T03:59:07;101376.56;;;16.75;46.53
18784;BME280;9520;50.954;6.968;2023-03-20T03:59:33;101371.44;;;16.68;46.44
18784;BME280;9520;50.954;6.968;2023-03-20T04:02:22;101381.03;;;16.73;46.64
18784;BME280;9520;50.954;6.968;2023-03-20T04:10:40;101398.91;;;16.70;47.21
18784;BME280;9520;50.954;6.968;2023-03-20T04:11:05;101397.22;;;16.67;47.50
18784;BME280;9520;50.954;6.968;2023-03-20T04:11:29;101403.38;;;16.69;47.63
18784;BME280;9520;50.954;6.968;2023-03-20T04:11:52;101390.19;;;16.65;47.69
18784;BME280;9520;50.954;6.968;2023-03-20T04:12:31;101404.28;;;16.68;47.39
18784;BME280;9520;50.954;6.968;2023-03-20T04:12:55;101408.69;;;16.69;46.98
18784;BME280;9520;50.954;6.968;2023-03-20T04:13:18;101405.09;;;16.72;47.16
18784;BME280;9520;50.954;6.968;2023-03-20T04:13:41;101399.78;;;16.70;47.12
18784;BME280;9520;50.954;6.968;2023-03-20T04:14:04;101398.91;;;16.70;47.18
18784;BME280;9520;50.954;6.968;2023-03-20T04:14:27;101400.69;;;16.71;46.71
18784;BME280;9520;50.954;6.968;2023-03-20T04:14:50;101394.38;;;16.73;46.96
18784;BME280;9520;50.954;6.968;2023-03-20T04:15:16;101389.09;;;16.72;47.14
18784;BME280;9520;50.954;6.968;2023-03-20T04:15:39;101396.09;;;16.76;46.99
18784;BME280;9520;50.954;6.968;2023-03-20T04:16:03;101384.53;;;16.77;46.88
18784;BME280;9520;50.954;6.968;2023-03-20T04:16:25;101393.31;;;16.79;46.97
18784;BME280;9520;50.954;6.968;2023-03-20T04:16:49;101388.84;;;16.81;46.55
18784;BME280;9520;50.954;6.968;2023-03-20T04:17:13;101391.56;;;16.78;46.64
18784;BME280;9520;50.954;6.968;2023-03-20T04:17:39;101390.63;;;16.80;46.71
18784;BME280;9520;50.954;6.968;2023-03-20T04:18:02;101388.88;;;16.79;46.62
18784;BME280;9520;50.954;6.968;2023-03-20T04:18:24;101392.59;;;16.74;46.72
18784;BME280;9520;50.954;6.968;2023-03-20T04:18:46;101394.16;;;16.81;46.65